createdAt,value
2022-10-05T00:00:34.936Z,99.99
2022-10-05T00:01:34.756Z,99.99
2022-10-05T00:02:34.648Z,99.99
2022-10-05T00:03:34.646Z,99.99
2022-10-05T00:04:34.890Z,99.99
2022-10-05T00:05:35.041Z,99.99
2022-10-05T00:06:34.581Z,99.99
2022-10-05T00:07:34.825Z,99.99
2022-10-05T00:08:34.555Z,99.99
2022-10-05T00:09:34.540Z,99.99
2022-10-05T00:10:34.783Z,99.99
2022-10-05T00:11:34.527Z,99.99
2022-10-05T00:12:34.505Z,99.99
2022-10-05T00:13:34.491Z,99.99
2022-10-05T00:14:34.733Z,99.99
2022-10-05T00:15:34.721Z,99.99
2022-10-05T00:16:34.887Z,99.99
2022-10-05T00:17:34.694Z,99.99
2022-10-05T00:18:34.424Z,99.99
2022-10-05T00:19:34.693Z,99.99
2022-10-05T00:20:34.675Z,99.99
2022-10-05T00:21:34.430Z,99.99
2022-10-05T00:22:34.620Z,99.99
2022-10-05T00:23:34.606Z,99.99
2022-10-05T00:24:34.594Z,99.99
2022-10-05T00:25:34.323Z,99.99
2022-10-05T00:26:34.572Z,99.99
2022-10-05T00:27:34.559Z,99.99
2022-10-05T00:28:34.672Z,99.99
2022-10-05T00:29:34.524Z,99.99
2022-10-05T00:30:34.511Z,99.99
2022-10-05T00:31:34.617Z,99.99
2022-10-05T00:32:34.229Z,99.99
2022-10-05T00:33:34.308Z,99.99
2022-10-05T00:34:34.204Z,99.99
2022-10-05T00:35:34.470Z,99.99
2022-10-05T00:36:34.455Z,99.99
2022-10-05T00:37:34.156Z,99.99
2022-10-05T00:38:34.149Z,99.99
2022-10-05T00:39:34.389Z,99.99
2022-10-05T00:40:34.377Z,99.99
2022-10-05T00:41:34.361Z,99.99
2022-10-05T00:42:34.355Z,99.99
2022-10-05T00:43:34.337Z,99.99
2022-10-05T00:44:34.325Z,99.99
2022-10-05T00:45:34.211Z,99.99
2022-10-05T00:46:34.299Z,99.99
2022-10-05T00:47:34.023Z,99.99
2022-10-05T00:48:34.020Z,99.99
2022-10-05T00:49:34.249Z,99.99
2022-10-05T00:50:33.984Z,99.99
2022-10-05T00:51:34.247Z,99.99
2022-10-05T00:52:34.252Z,99.99
2022-10-05T00:53:34.457Z,99.99
2022-10-05T00:54:34.457Z,99.99
2022-10-05T00:55:34.686Z,99.99
2022-10-05T00:56:34.674Z,99.99
2022-10-05T00:57:34.402Z,99.99
2022-10-05T00:58:34.646Z,99.99
2022-10-05T00:59:34.629Z,99.99
2022-10-05T01:00:34.631Z,99.99
2022-10-05T01:01:34.734Z,99.99
2022-10-05T01:02:39.128Z,99.99
2022-10-05T01:03:34.321Z,99.99
2022-10-05T01:04:34.312Z,99.99
2022-10-05T01:05:34.552Z,99.99
2022-10-05T01:06:34.281Z,99.99
2022-10-05T01:07:34.357Z,99.99
2022-10-05T01:08:34.538Z,99.99
2022-10-05T01:09:34.497Z,99.99
2022-10-05T01:10:34.480Z,99.99
2022-10-05T01:11:34.474Z,99.99
2022-10-05T01:12:34.203Z,99.99
2022-10-05T01:13:34.190Z,99.99
2022-10-05T01:14:34.431Z,99.99
2022-10-05T01:15:34.161Z,99.99
2022-10-05T01:16:34.548Z,99.99
2022-10-05T01:17:34.136Z,99.99
2022-10-05T01:18:34.124Z,99.99
2022-10-05T01:19:34.363Z,99.99
2022-10-05T01:20:34.090Z,99.99
2022-10-05T01:21:34.359Z,99.99
2022-10-05T01:22:34.066Z,99.99
2022-10-05T01:23:34.079Z,99.99
2022-10-05T01:24:34.338Z,99.99
2022-10-05T01:25:34.282Z,99.99
2022-10-05T01:26:34.009Z,99.99
2022-10-05T01:27:34.255Z,99.99
2022-10-05T01:28:34.408Z,99.99
2022-10-05T01:29:33.971Z,99.99
2022-10-05T01:30:33.957Z,99.99
2022-10-05T01:31:34.280Z,99.99
2022-10-05T01:32:33.926Z,99.99
2022-10-05T01:33:34.182Z,99.99
2022-10-05T01:34:33.908Z,99.99
2022-10-05T01:35:33.896Z,99.99
2022-10-05T01:36:34.129Z,99.99
2022-10-05T01:37:34.122Z,99.99
2022-10-05T01:38:33.844Z,99.99
2022-10-05T01:39:34.115Z,99.99
2022-10-05T01:40:34.097Z,99.99
2022-10-05T01:41:34.064Z,99.99
2022-10-05T01:42:33.791Z,99.99
2022-10-05T01:43:34.034Z,99.99
2022-10-05T01:44:33.765Z,99.99
2022-10-05T01:45:34.146Z,99.99
2022-10-05T01:46:33.736Z,99.99
2022-10-05T01:47:33.980Z,99.99
2022-10-05T01:48:33.964Z,99.99
2022-10-05T01:49:33.958Z,99.99
2022-10-05T01:50:33.959Z,99.99
2022-10-05T01:51:33.928Z,99.99
2022-10-05T01:52:33.654Z,99.99
2022-10-05T01:53:33.898Z,99.99
2022-10-05T01:54:33.624Z,99.99
2022-10-05T01:55:33.638Z,99.99
2022-10-05T01:56:33.878Z,99.99
2022-10-05T01:57:33.588Z,99.99
2022-10-05T01:58:33.573Z,99.99
2022-10-05T01:59:33.556Z,99.99
2022-10-05T02:00:33.801Z,99.99
2022-10-05T02:01:33.932Z,99.99
2022-10-05T02:02:33.696Z,99.99
2022-10-05T02:03:33.500Z,99.99
2022-10-05T02:05:03.371Z,99.99
2022-10-05T02:05:33.473Z,99.99
2022-10-05T02:06:33.721Z,99.99
2022-10-05T02:07:33.706Z,99.99
2022-10-05T02:08:33.435Z,99.99
2022-10-05T02:09:33.419Z,99.99
2022-10-05T02:10:33.669Z,99.99
2022-10-05T02:11:33.444Z,99.99
2022-10-05T02:12:33.660Z,99.99
2022-10-05T02:13:33.619Z,99.99
2022-10-05T02:14:33.726Z,99.99
2022-10-05T02:15:33.437Z,99.99
2022-10-05T02:16:33.340Z,99.99
2022-10-05T02:17:33.312Z,99.99
2022-10-05T02:18:33.552Z,99.99
2022-10-05T02:19:33.536Z,99.99
2022-10-05T02:20:33.281Z,99.99
2022-10-05T02:21:33.515Z,99.99
2022-10-05T02:22:33.251Z,99.99
2022-10-05T02:23:33.225Z,99.99
2022-10-05T02:24:33.478Z,99.99
2022-10-05T02:25:33.457Z,99.99
2022-10-05T02:26:33.191Z,99.99
2022-10-05T02:27:33.196Z,99.99
2022-10-05T02:28:33.626Z,99.99
2022-10-05T02:29:33.401Z,99.99
2022-10-05T02:30:33.391Z,99.99
2022-10-05T02:31:33.601Z,99.99
2022-10-05T02:32:33.104Z,99.99
2022-10-05T02:33:33.093Z,99.99
2022-10-05T02:34:33.078Z,99.99
2022-10-05T02:35:33.318Z,99.99
2022-10-05T02:36:33.050Z,99.99
2022-10-05T02:37:33.041Z,99.99
2022-10-05T02:38:33.279Z,99.99
2022-10-05T02:39:33.262Z,99.99
2022-10-05T02:40:33.249Z,99.99
2022-10-05T02:41:32.977Z,99.99
2022-10-05T02:42:33.225Z,99.99
2022-10-05T02:43:33.231Z,99.99
2022-10-05T02:44:33.223Z,99.99
2022-10-05T02:45:33.094Z,99.99
2022-10-05T02:46:33.178Z,99.99
2022-10-05T02:47:32.894Z,99.99
2022-10-05T02:48:33.138Z,99.99
2022-10-05T02:49:33.123Z,99.99
2022-10-05T02:50:32.861Z,99.99
2022-10-05T02:51:33.096Z,99.99
2022-10-05T02:52:33.085Z,99.99
2022-10-05T02:53:32.820Z,99.99
2022-10-05T02:54:33.056Z,99.99
2022-10-05T02:55:32.801Z,99.99
2022-10-05T02:56:33.038Z,99.99
2022-10-05T02:57:33.015Z,99.99
2022-10-05T02:58:32.748Z,99.99
2022-10-05T02:59:33.014Z,99.99
2022-10-05T03:00:32.994Z,99.99
2022-10-05T03:01:33.067Z,99.99
2022-10-05T03:02:33.033Z,99.99
2022-10-05T03:03:33.057Z,99.99
2022-10-05T03:04:32.916Z,99.99
2022-10-05T03:05:32.905Z,99.99
2022-10-05T03:06:32.629Z,99.99
2022-10-05T03:07:32.876Z,99.99
2022-10-05T03:08:32.859Z,99.99
2022-10-05T03:09:32.848Z,99.99
2022-10-05T03:10:32.573Z,99.99
2022-10-05T03:11:32.820Z,99.99
2022-10-05T03:12:32.551Z,99.99
2022-10-05T03:13:32.795Z,99.99
2022-10-05T03:14:32.517Z,99.99
2022-10-05T03:15:32.788Z,99.99
2022-10-05T03:16:32.869Z,99.99
2022-10-05T03:17:32.477Z,99.99
2022-10-05T03:18:33.211Z,99.99
2022-10-05T03:19:32.714Z,99.99
2022-10-05T03:20:32.692Z,99.99
2022-10-05T03:21:32.683Z,99.99
2022-10-05T03:22:32.667Z,99.99
2022-10-05T03:23:32.393Z,99.99
2022-10-05T03:24:32.636Z,99.99
2022-10-05T03:25:32.626Z,99.99
2022-10-05T03:26:32.608Z,99.99
2022-10-05T03:27:32.349Z,99.99
2022-10-05T03:28:32.529Z,99.99
2022-10-05T03:29:32.568Z,99.99
2022-10-05T03:30:32.295Z,99.99
2022-10-05T03:31:32.786Z,99.99
2022-10-05T03:32:32.548Z,99.99
2022-10-05T03:49:31.170Z,99.99
2022-10-05T03:50:30.846Z,99.99
2022-10-05T03:51:31.092Z,99.99
2022-10-05T03:52:30.810Z,99.99
2022-10-05T03:53:31.054Z,99.99
2022-10-05T03:54:30.776Z,99.99
2022-10-05T03:55:30.763Z,99.99
2022-10-05T03:56:31.007Z,99.99
2022-10-05T03:57:30.729Z,99.99
2022-10-05T03:58:30.719Z,99.99
2022-10-05T03:59:35.042Z,99.99
2022-10-05T04:00:30.683Z,99.99
2022-10-05T04:01:31.076Z,99.99
2022-10-05T04:02:30.830Z,99.99
2022-10-05T04:03:30.637Z,99.99
2022-10-05T04:04:30.622Z,99.99
2022-10-05T04:05:30.914Z,99.99
2022-10-05T04:06:30.849Z,99.99
2022-10-05T04:07:30.854Z,99.99
2022-10-05T04:08:30.566Z,99.99
2022-10-05T04:09:30.549Z,99.99
2022-10-05T04:10:30.531Z,99.99
2022-10-05T04:11:30.780Z,99.99
2022-10-05T04:12:30.763Z,99.99
2022-10-05T04:13:30.749Z,99.99
2022-10-05T04:14:30.731Z,99.99
2022-10-05T04:15:30.462Z,99.99
2022-10-05T04:16:30.631Z,99.99
2022-10-05T04:17:30.433Z,99.99
2022-10-05T04:18:30.418Z,99.99
2022-10-05T04:19:30.405Z,99.99
2022-10-05T04:20:30.388Z,99.99
2022-10-05T04:21:30.740Z,99.99
2022-10-05T04:22:30.361Z,99.99
2022-10-05T04:23:30.347Z,99.99
2022-10-05T04:24:30.598Z,99.99
2022-10-05T04:25:30.573Z,99.99
2022-10-05T04:26:30.301Z,99.99
2022-10-05T04:27:30.286Z,99.99
2022-10-05T04:28:34.429Z,99.99
2022-10-05T04:29:30.522Z,99.99
2022-10-05T04:30:30.499Z,99.99
2022-10-05T04:31:30.585Z,99.99
2022-10-05T04:32:30.472Z,99.99
2022-10-05T04:33:30.462Z,99.99
2022-10-05T04:34:30.446Z,99.99
2022-10-05T04:35:30.472Z,99.99
2022-10-05T04:36:30.173Z,99.99
2022-10-05T04:37:30.456Z,99.99
2022-10-05T04:38:30.391Z,99.99
2022-10-05T04:39:30.115Z,99.99
2022-10-05T04:40:30.358Z,99.99
2022-10-05T04:41:30.344Z,99.99
2022-10-05T04:42:30.339Z,99.99
2022-10-05T04:43:30.313Z,99.99
2022-10-05T04:44:30.044Z,99.99
2022-10-05T04:45:30.287Z,99.99
2022-10-05T04:46:30.444Z,99.99
2022-10-05T04:47:30.256Z,99.99
2022-10-05T04:48:30.249Z,99.99
2022-10-05T04:49:29.973Z,99.99
2022-10-05T04:50:30.221Z,99.99
2022-10-05T04:51:30.199Z,99.99
2022-10-05T04:52:29.931Z,99.99
2022-10-05T04:53:30.219Z,99.99
2022-10-05T04:54:29.902Z,99.99
2022-10-05T04:55:30.152Z,99.99
2022-10-05T04:56:29.874Z,99.99
2022-10-05T04:57:29.859Z,99.99
2022-10-05T04:58:30.105Z,99.99
2022-10-05T04:59:30.084Z,99.99
2022-10-05T05:00:29.883Z,99.99
2022-10-05T05:01:30.059Z,99.99
2022-10-05T05:02:29.788Z,99.99
2022-10-05T05:03:30.150Z,99.99
2022-10-05T05:04:30.015Z,99.99
2022-10-05T05:05:30.001Z,99.99
2022-10-05T05:06:29.731Z,99.99
2022-10-05T05:07:29.979Z,99.99
2022-10-05T05:08:29.965Z,99.99
2022-10-05T05:09:29.994Z,99.99
2022-10-05T05:10:29.673Z,99.99
2022-10-05T05:11:29.661Z,99.99
2022-10-05T05:12:29.646Z,99.99
2022-10-05T05:13:29.630Z,99.99
2022-10-05T05:14:29.616Z,99.99
2022-10-05T05:15:29.866Z,99.99
2022-10-05T05:16:29.726Z,99.99
2022-10-05T05:17:29.831Z,99.99
2022-10-05T05:18:29.818Z,99.99
2022-10-05T05:19:29.811Z,99.99
2022-10-05T05:20:29.792Z,99.99
2022-10-05T05:21:29.523Z,99.99
2022-10-05T05:22:29.772Z,99.99
2022-10-05T05:23:29.492Z,99.99
2022-10-05T05:24:29.738Z,99.99
2022-10-05T05:25:29.772Z,99.99
2022-10-05T05:26:29.715Z,99.99
2022-10-05T05:27:29.434Z,99.99
2022-10-05T05:28:29.865Z,99.99
2022-10-05T05:29:29.660Z,99.99
2022-10-05T05:30:29.393Z,99.99
2022-10-05T05:31:29.479Z,99.99
2022-10-05T05:32:29.622Z,99.99
2022-10-05T05:33:29.351Z,99.99
2022-10-05T05:34:29.333Z,99.99
2022-10-05T05:35:29.585Z,99.99
2022-10-05T05:36:29.563Z,99.99
2022-10-05T05:37:29.551Z,99.99
2022-10-05T05:38:29.546Z,99.99
2022-10-05T05:39:29.521Z,99.99
2022-10-05T05:40:29.251Z,99.99
2022-10-05T05:41:29.549Z,99.99
2022-10-05T05:42:29.478Z,99.99
2022-10-05T05:43:29.211Z,99.99
2022-10-05T05:44:29.196Z,99.99
2022-10-05T05:45:29.449Z,99.99
2022-10-05T05:47:09.560Z,99.99
2022-10-05T05:47:29.255Z,99.99
2022-10-05T05:48:29.141Z,99.99
2022-10-05T05:49:29.381Z,99.99
2022-10-05T05:50:29.366Z,99.99
2022-10-05T05:51:29.097Z,99.99
2022-10-05T05:52:29.343Z,99.99
2022-10-05T05:53:29.070Z,99.99
2022-10-05T05:54:29.052Z,99.99
2022-10-05T05:55:32.800Z,99.99
2022-10-05T05:56:29.028Z,99.99
2022-10-05T05:57:29.343Z,99.99
2022-10-05T05:58:29.253Z,99.99
2022-10-05T05:59:29.001Z,99.99
2022-10-05T06:00:29.237Z,99.99
2022-10-05T06:01:35.410Z,99.99
2022-10-05T06:02:29.431Z,99.99
2022-10-05T06:03:29.510Z,99.99
2022-10-05T06:04:29.170Z,99.99
2022-10-05T06:05:29.164Z,99.99
2022-10-05T06:06:28.894Z,99.99
2022-10-05T06:07:32.978Z,99.99
2022-10-05T06:08:29.117Z,99.99
2022-10-05T06:09:29.104Z,99.99
2022-10-05T06:10:28.911Z,99.99
2022-10-05T06:11:28.822Z,99.99
2022-10-05T06:12:29.066Z,99.99
2022-10-05T06:13:29.700Z,99.99
2022-10-05T06:14:29.620Z,99.99
2022-10-05T06:15:29.604Z,99.99
2022-10-05T06:16:29.725Z,99.99
2022-10-05T06:17:29.575Z,99.99
2022-10-05T06:18:29.565Z,99.99
2022-10-05T06:19:29.288Z,99.99
2022-10-05T06:20:29.316Z,99.99
2022-10-05T06:21:29.265Z,99.99
2022-10-05T06:22:29.248Z,99.99
2022-10-05T06:23:29.520Z,99.99
2022-10-05T06:24:29.229Z,99.99
2022-10-05T06:25:29.471Z,99.99
2022-10-05T06:26:29.450Z,99.99
2022-10-05T06:27:29.439Z,99.99
2022-10-05T06:28:29.598Z,99.99
2022-10-05T06:29:29.521Z,99.99
2022-10-05T06:30:29.481Z,99.99
2022-10-05T06:31:29.257Z,99.99
2022-10-05T06:32:29.373Z,99.99
2022-10-05T06:33:29.366Z,99.99
2022-10-05T06:34:29.344Z,99.99
2022-10-05T06:35:29.076Z,99.99
2022-10-05T06:36:29.062Z,99.99
2022-10-05T06:37:29.307Z,99.99
2022-10-05T06:38:29.290Z,99.99
2022-10-05T06:39:29.275Z,99.99
2022-10-05T06:40:29.352Z,99.99
2022-10-05T06:41:29.253Z,99.99
2022-10-05T06:42:29.241Z,99.99
2022-10-05T06:43:29.258Z,99.99
2022-10-05T06:44:29.210Z,99.99
2022-10-05T06:45:29.500Z,99.99
2022-10-05T06:46:28.929Z,99.99
2022-10-05T06:47:29.172Z,99.99
2022-10-05T06:48:28.912Z,99.99
2022-10-05T06:49:28.892Z,99.99
2022-10-05T06:50:28.880Z,99.99
2022-10-05T06:51:29.118Z,99.99
2022-10-05T06:52:29.109Z,99.99
2022-10-05T06:53:28.833Z,99.99
2022-10-05T06:54:29.078Z,99.99
2022-10-05T06:55:29.064Z,99.99
2022-10-05T06:56:28.812Z,99.99
2022-10-05T06:57:29.038Z,99.99
2022-10-05T06:58:29.032Z,99.99
2022-10-05T06:59:28.756Z,99.99
2022-10-05T07:00:29.009Z,99.99
2022-10-05T07:01:29.246Z,99.99
2022-10-05T07:02:29.201Z,99.99
2022-10-05T07:03:28.963Z,99.99
2022-10-05T07:04:30.439Z,99.99
2022-10-05T07:05:28.937Z,99.99
2022-10-05T07:06:28.675Z,99.99
2022-10-05T07:07:28.912Z,99.99
2022-10-05T07:08:28.651Z,99.99
2022-10-05T07:09:28.907Z,99.99
2022-10-05T07:10:28.880Z,99.99
2022-10-05T07:11:28.862Z,99.99
2022-10-05T07:12:28.593Z,99.99
2022-10-05T07:13:28.577Z,99.99
2022-10-05T07:14:28.826Z,99.99
2022-10-05T07:15:28.555Z,99.99
2022-10-05T07:16:29.028Z,99.99
2022-10-05T07:17:28.845Z,99.99
2022-10-05T07:18:28.820Z,99.99
2022-10-05T07:19:28.506Z,99.99
2022-10-05T07:20:28.756Z,99.99
2022-10-05T07:21:28.739Z,99.99
2022-10-05T07:22:33.362Z,99.99
2022-10-05T07:23:28.715Z,99.99
2022-10-05T07:24:28.440Z,99.99
2022-10-05T07:25:28.698Z,99.99
2022-10-05T07:26:28.448Z,99.99
2022-10-05T07:27:28.409Z,99.99
2022-10-05T07:28:29.055Z,99.99
2022-10-05T07:29:28.638Z,99.99
2022-10-05T07:30:28.696Z,99.99
2022-10-05T07:31:28.470Z,99.99
2022-10-05T07:32:28.349Z,99.99
2022-10-05T07:33:28.658Z,99.99
2022-10-05T07:34:28.323Z,99.99
2022-10-05T07:35:28.574Z,99.99
2022-10-05T07:36:28.556Z,99.99
2022-10-05T07:37:28.288Z,99.99
2022-10-05T07:38:28.278Z,99.99
2022-10-05T07:40:01.027Z,99.99
2022-10-05T07:40:28.508Z,99.99
2022-10-05T07:41:28.241Z,99.99
2022-10-05T07:42:28.481Z,99.99
2022-10-05T07:43:51.331Z,99.99
2022-10-05T07:44:28.467Z,99.99
2022-10-05T07:45:28.659Z,99.99
2022-10-05T07:46:28.447Z,99.99
2022-10-05T07:47:28.174Z,99.99
2022-10-05T07:48:28.157Z,99.99
2022-10-05T07:49:28.458Z,99.99
2022-10-05T07:50:28.391Z,99.99
2022-10-05T07:51:28.123Z,99.99
2022-10-05T07:52:32.362Z,99.99
2022-10-05T07:53:28.358Z,99.99
2022-10-05T07:54:28.086Z,99.99
2022-10-05T07:55:28.079Z,99.99
2022-10-05T07:56:28.068Z,99.99
2022-10-05T07:57:28.052Z,99.99
2022-10-05T07:58:28.047Z,99.99
2022-10-05T07:59:28.287Z,99.99
2022-10-05T08:00:28.023Z,99.99
2022-10-05T08:01:28.105Z,99.99
2022-10-05T08:02:28.635Z,99.99
2022-10-05T08:03:28.509Z,99.99
2022-10-05T08:04:28.494Z,99.99
2022-10-05T08:05:28.598Z,99.99
2022-10-05T08:06:28.466Z,99.99
2022-10-05T08:07:28.209Z,99.99
2022-10-05T08:08:28.189Z,99.99
2022-10-05T08:09:28.434Z,99.99
2022-10-05T08:10:28.165Z,99.99
2022-10-05T08:11:28.154Z,99.99
2022-10-05T08:12:28.401Z,99.99
2022-10-05T08:13:28.389Z,99.99
2022-10-05T08:14:28.542Z,99.99
2022-10-05T08:15:28.109Z,99.99
2022-10-05T08:16:28.512Z,99.99
2022-10-05T08:17:28.738Z,99.99
2022-10-05T08:18:28.344Z,99.99
2022-10-05T08:19:28.323Z,99.99
2022-10-05T08:20:28.317Z,99.99
2022-10-05T08:21:28.359Z,99.99
2022-10-05T08:22:28.336Z,99.99
2022-10-05T08:23:28.293Z,99.99
2022-10-05T08:24:28.459Z,99.99
2022-10-05T08:25:28.449Z,99.99
2022-10-05T08:26:28.443Z,99.99
2022-10-05T08:27:28.427Z,99.99
2022-10-05T08:28:28.285Z,99.99
2022-10-05T08:29:28.156Z,99.99
2022-10-05T08:30:28.144Z,99.99
2022-10-05T08:31:28.505Z,99.99
2022-10-05T08:32:28.386Z,99.99
2022-10-05T08:33:28.115Z,99.99
2022-10-05T08:34:28.139Z,99.99
2022-10-05T08:35:28.097Z,99.99
2022-10-05T08:36:28.345Z,99.99
2022-10-05T08:37:28.384Z,99.99
2022-10-05T08:38:28.066Z,99.99
2022-10-05T08:39:28.316Z,99.99
2022-10-05T08:40:28.050Z,99.38
2022-10-05T08:41:28.294Z,96.42
2022-10-05T08:42:28.292Z,96.13
2022-10-05T08:43:30.618Z,93.26
2022-10-05T08:44:28.269Z,92.59
2022-10-05T08:45:28.005Z,92.88
2022-10-05T08:46:28.632Z,92.3
2022-10-05T08:47:28.185Z,91.58
2022-10-05T08:48:28.448Z,92.16
2022-10-05T08:49:31.616Z,91.97
2022-10-05T08:50:28.417Z,88.04
2022-10-05T08:51:28.405Z,88.23
2022-10-05T08:52:28.426Z,88.33
2022-10-05T08:53:28.442Z,85.79
2022-10-05T08:54:28.128Z,85.5
2022-10-05T08:55:28.377Z,82.92
2022-10-05T08:56:31.148Z,83.78
2022-10-05T08:57:28.102Z,84.06
2022-10-05T08:58:28.094Z,83.78
2022-10-05T08:59:28.352Z,84.26
2022-10-05T09:00:28.085Z,83.68
2022-10-05T09:01:28.459Z,82.92
2022-10-05T09:02:28.481Z,82.53
2022-10-05T09:03:30.971Z,82.53
2022-10-05T09:04:28.304Z,81.48
2022-10-05T09:05:28.043Z,80.76
2022-10-05T09:06:28.296Z,80.37
2022-10-05T09:07:28.290Z,80.27
2022-10-05T09:08:28.290Z,78.55
2022-10-05T09:09:28.323Z,78.45
2022-10-05T09:10:28.264Z,77.4
2022-10-05T09:11:28.000Z,77.02
2022-10-05T09:12:27.991Z,76.25
2022-10-05T09:13:28.263Z,75.68
2022-10-05T09:14:28.235Z,75.48
2022-10-05T09:15:29.005Z,75.29
2022-10-05T09:16:28.075Z,74.62
2022-10-05T09:17:27.956Z,74.91
2022-10-05T09:18:28.207Z,75.39
2022-10-05T09:19:28.199Z,76.29
2022-10-05T09:20:28.189Z,73.8
2022-10-05T09:21:28.197Z,74.18
2022-10-05T09:22:28.184Z,73.7
2022-10-05T09:23:28.174Z,73.61
2022-10-05T09:24:27.906Z,72.55
2022-10-05T09:25:28.212Z,72.8
2022-10-05T09:26:28.156Z,73.66
2022-10-05T09:27:27.888Z,73.09
2022-10-05T09:28:28.306Z,74.15
2022-10-05T09:29:27.877Z,73.86
2022-10-05T09:30:27.868Z,74.33
2022-10-05T09:31:27.934Z,73.95
2022-10-05T09:32:28.112Z,74.52
2022-10-05T09:33:27.852Z,74.91
2022-10-05T09:34:28.097Z,75.39
2022-10-05T09:35:28.099Z,75.77
2022-10-05T09:36:28.084Z,76.64
2022-10-05T09:37:28.086Z,76.06
2022-10-05T09:38:28.069Z,76.82
2022-10-05T09:39:28.083Z,77.02
2022-10-05T09:40:28.058Z,76.92
2022-10-05T09:41:28.102Z,76.15
2022-10-05T09:42:28.042Z,76.35
2022-10-05T09:43:28.180Z,76.15
2022-10-05T09:44:27.772Z,76.73
2022-10-05T09:45:28.023Z,77.21
2022-10-05T09:46:28.022Z,76.82
2022-10-05T09:47:28.014Z,76.73
2022-10-05T09:48:28.009Z,77.21
2022-10-05T09:49:27.996Z,77.02
2022-10-05T09:50:27.994Z,77.94
2022-10-05T09:51:27.725Z,77.75
2022-10-05T09:52:27.720Z,78.8
2022-10-05T09:53:27.713Z,79.28
2022-10-05T09:54:27.963Z,79.18
2022-10-05T09:55:28.004Z,79.18
2022-10-05T09:57:28.025Z,79.47
2022-10-05T09:58:27.944Z,79.85
2022-10-05T09:59:27.930Z,80.04
2022-10-05T10:00:27.669Z,80.33
2022-10-05T10:01:36.905Z,80.04
2022-10-05T10:02:28.185Z,80.24
2022-10-05T10:03:28.027Z,81.48
2022-10-05T10:04:27.897Z,81.86
2022-10-05T10:05:27.627Z,81.67
2022-10-05T10:06:27.881Z,81.96
2022-10-05T10:07:27.876Z,82.2
2022-10-05T10:08:27.616Z,83.11
2022-10-05T10:09:27.603Z,83.11
2022-10-05T10:10:27.597Z,83.11
2022-10-05T10:11:27.589Z,83.2
2022-10-05T10:12:27.850Z,83.01
2022-10-05T10:13:27.887Z,83.11
2022-10-05T10:14:27.833Z,82.63
2022-10-05T10:15:27.816Z,82.73
2022-10-05T10:16:27.713Z,82.29
2022-10-05T10:17:27.800Z,82.34
2022-10-05T10:18:27.799Z,82.29
2022-10-05T10:19:27.529Z,82.63
2022-10-05T10:20:27.779Z,81.81
2022-10-05T10:21:27.777Z,81.81
2022-10-05T10:22:27.769Z,81.52
2022-10-05T10:23:27.765Z,81.18
2022-10-05T10:24:27.500Z,80.7
2022-10-05T10:25:27.489Z,80.12
2022-10-05T10:26:27.741Z,79.64
2022-10-05T10:27:27.741Z,79.64
2022-10-05T10:28:27.793Z,80.32
2022-10-05T10:30:31.048Z,80.22
2022-10-05T10:31:27.789Z,80.51
2022-10-05T10:32:27.445Z,80.32
2022-10-05T10:33:27.699Z,81.85
2022-10-05T10:34:27.690Z,81.56
2022-10-05T10:35:27.757Z,80.64
2022-10-05T10:36:27.675Z,79.21
2022-10-05T10:37:27.413Z,78.63
2022-10-05T10:38:27.406Z,78.05
2022-10-05T10:39:27.655Z,78.49
2022-10-05T10:40:27.394Z,79.83
2022-10-05T10:41:27.391Z,79.93
2022-10-05T10:42:28.424Z,80.41
2022-10-05T10:43:27.377Z,80.89
2022-10-05T10:44:27.624Z,80.7
2022-10-05T10:45:27.760Z,81.27
2022-10-05T10:46:27.764Z,80.55
2022-10-05T10:47:27.608Z,80.74
2022-10-05T10:48:27.600Z,80.74
2022-10-05T10:49:27.334Z,80.26
2022-10-05T10:50:27.587Z,79.49
2022-10-05T10:51:27.579Z,79.78
2022-10-05T10:52:27.572Z,79.11
2022-10-05T10:53:27.571Z,79.01
2022-10-05T10:54:27.324Z,78.78
2022-10-05T10:55:27.302Z,80.22
2022-10-05T10:56:27.293Z,79.55
2022-10-05T10:57:27.548Z,80.12
2022-10-05T10:58:27.726Z,80.22
2022-10-05T10:59:31.819Z,79.21
2022-10-05T11:00:27.519Z,79.97
2022-10-05T11:01:27.684Z,80.07
2022-10-05T11:02:27.673Z,79.68
2022-10-05T11:03:27.509Z,79.93
2022-10-05T11:04:27.245Z,80.22
2022-10-05T11:05:27.494Z,79.93
2022-10-05T11:06:27.480Z,80.6
2022-10-05T11:07:27.480Z,80.7
2022-10-05T11:08:27.469Z,80.6
2022-10-05T11:09:27.468Z,81.37
2022-10-05T11:10:27.460Z,82.52
2022-10-05T11:11:27.454Z,83.19
2022-10-05T11:12:29.864Z,83.09
2022-10-05T11:13:27.443Z,83.05
2022-10-05T11:14:27.175Z,83.34
2022-10-05T11:15:27.437Z,83.05
2022-10-05T11:16:27.164Z,84.39
2022-10-05T11:17:27.468Z,83.92
2022-10-05T11:18:27.408Z,83.92
2022-10-05T11:19:59.474Z,84.01
2022-10-05T11:20:27.157Z,84.39
2022-10-05T11:21:27.132Z,84.39
2022-10-05T11:22:27.124Z,85.16
2022-10-05T11:23:27.120Z,85.45
2022-10-05T11:24:27.365Z,84.34
2022-10-05T11:25:27.364Z,84.49
2022-10-05T11:26:27.371Z,84.91
2022-10-05T11:27:27.125Z,84.44
2022-10-05T11:28:27.590Z,84.44
2022-10-05T11:29:27.080Z,84.44
2022-10-05T11:30:27.069Z,84.91
2022-10-05T11:31:27.250Z,85.68
2022-10-05T11:32:27.325Z,83.86
2022-10-05T11:33:27.361Z,83.19
2022-10-05T11:34:27.307Z,83.48
2022-10-05T11:35:27.293Z,83.67
2022-10-05T11:36:27.298Z,83.86
2022-10-05T11:37:27.290Z,83.67
2022-10-05T11:38:27.281Z,83.48
2022-10-05T11:39:27.013Z,84.05
2022-10-05T11:40:27.976Z,83.48
2022-10-05T11:41:28.216Z,83.86
2022-10-05T11:42:28.212Z,84.05
2022-10-05T11:43:27.947Z,83.67
2022-10-05T11:44:28.202Z,83.76
2022-10-05T11:45:28.189Z,84.05
2022-10-05T11:46:28.088Z,84.05
2022-10-05T11:47:27.924Z,83.76
2022-10-05T11:48:28.241Z,84.67
2022-10-05T11:49:28.230Z,84.58
2022-10-05T11:50:27.901Z,84
2022-10-05T11:51:31.291Z,83.81
2022-10-05T11:52:28.151Z,83.71
2022-10-05T11:53:28.139Z,83.71
2022-10-05T11:54:27.877Z,83.71
2022-10-05T11:55:28.127Z,84.19
2022-10-05T11:56:27.923Z,83.14
2022-10-05T11:57:28.118Z,83.23
2022-10-05T11:58:27.851Z,82.6
2022-10-05T11:59:27.853Z,83.23
2022-10-05T12:00:28.104Z,83.14
2022-10-05T12:01:27.835Z,83.81
2022-10-05T12:02:28.512Z,84
2022-10-05T12:03:28.644Z,83.94
2022-10-05T12:04:28.436Z,83.27
2022-10-05T12:05:28.478Z,82.89
2022-10-05T12:06:28.423Z,82.7
2022-10-05T12:07:28.411Z,82.7
2022-10-05T12:08:28.155Z,82.7
2022-10-05T12:09:28.400Z,82.79
2022-10-05T12:10:28.397Z,82.98
2022-10-05T12:11:28.140Z,82.03
2022-10-05T12:12:28.387Z,82.03
2022-10-05T12:13:28.375Z,82.51
2022-10-05T12:14:28.117Z,82.79
2022-10-05T12:15:28.106Z,82.41
2022-10-05T12:16:28.462Z,82.41
2022-10-05T12:17:28.353Z,82.75
2022-10-05T12:18:28.348Z,83.04
2022-10-05T12:19:28.085Z,83.33
2022-10-05T12:20:28.342Z,83.14
2022-10-05T12:21:28.390Z,83.33
2022-10-05T12:22:28.097Z,84.19
2022-10-05T12:23:28.321Z,84.09
2022-10-05T12:24:29.259Z,84
2022-10-05T12:25:28.923Z,84
2022-10-05T12:26:28.654Z,84
2022-10-05T12:27:28.653Z,84.19
2022-10-05T12:28:29.071Z,84.58
2022-10-05T12:29:28.635Z,84.86
2022-10-05T12:30:28.629Z,84.48
2022-10-05T12:31:28.737Z,84.58
2022-10-05T12:32:28.615Z,84.48
2022-10-05T12:33:28.611Z,84.95
2022-10-05T12:34:28.860Z,85.72
2022-10-05T12:35:49.537Z,85.15
2022-10-05T12:37:02.828Z,84.48
2022-10-05T12:37:28.964Z,83.71
2022-10-05T12:38:28.841Z,83.52
2022-10-05T12:39:28.837Z,83.23
2022-10-05T12:40:28.821Z,81.31
2022-10-05T12:41:28.820Z,81.79
2022-10-05T12:42:28.809Z,81.6
2022-10-05T12:43:28.557Z,81.41
2022-10-05T12:44:28.539Z,82.08
2022-10-05T12:45:28.911Z,81.98
2022-10-05T12:46:29.460Z,82.37
2022-10-05T12:47:29.713Z,82.31
2022-10-05T12:48:29.711Z,82.6
2022-10-05T12:49:29.446Z,82.89
2022-10-05T12:50:29.441Z,82.31
2022-10-05T12:51:29.732Z,82.7
2022-10-05T12:52:29.713Z,82.51
2022-10-05T12:53:29.714Z,82.6
2022-10-05T12:54:29.672Z,82.31
2022-10-05T12:55:29.407Z,81.84
2022-10-05T12:56:29.402Z,82.21
2022-10-05T12:57:29.655Z,82.6
2022-10-05T12:58:29.387Z,81.74
2022-10-05T12:59:29.640Z,80.97
2022-10-05T13:00:29.399Z,78.96
2022-10-05T13:01:29.378Z,76.65
2022-10-05T13:02:29.620Z,72.05
2022-10-05T13:03:29.361Z,71.19
2022-10-05T13:04:29.609Z,70.51
2022-10-05T13:05:29.371Z,70.32
2022-10-05T13:06:29.599Z,69.56
2022-10-05T13:07:29.337Z,69.46
2022-10-05T13:08:30.604Z,70.13
2022-10-05T13:09:30.618Z,69.26
2022-10-05T13:10:30.329Z,68.69
2022-10-05T13:11:30.558Z,68.98